Time;durP1;ratioP1;P1;durP2;ratioP2;P2;SDS_P1;SDS_P2;PMS_P1;PMS_P2;Temp;Humidity;BMP_temperature;BMP_pressure;BME280_temperature;BME280_humidity;BME280_pressure;Samples;Min_cycle;Max_cycle;Signal;HPM_P1;HPM_P2
2023/10/28 00:02:52;;;;;;;;;1.00;0.67;;;;;21.36;59.41;100305.53;146617;580;46020;-67
2023/10/28 00:05:55;;;;;;;;;;;;;;;;;;;;;
2023/10/28 00:09:01;;;;;;;;;1.00;0.00;;;;;21.32;59.29;100298.47;146614;595;46010;-67
2023/10/28 00:12:04;;;;;;;;;0.00;0.00;;;;;21.34;59.32;100294.06;146610;615;46034;-69
2023/10/28 00:15:07;;;;;;;;;1.00;1.00;;;;;21.37;59.63;100297.66;146619;707;46010;-67
2023/10/28 00:18:25;;;;;;;;;2.00;1.00;;;;;21.35;59.29;100299.38;146609;576;46016;-67
2023/10/28 00:21:25;;;;;;;;;1.33;1.00;;;;;21.35;59.12;100304.66;146616;573;46011;-68
2023/10/28 00:24:28;;;;;;;;;0.33;0.33;;;;;21.31;58.84;100302.88;146710;570;46022;-66
2023/10/28 00:27:43;;;;;;;;;3.67;1.00;;;;;21.39;59.10;100305.53;146620;563;46016;-68
2023/10/28 00:30:42;;;;;;;;;0.00;0.00;;;;;21.47;58.58;100303.78;146626;622;46012;-68
2023/10/28 00:33:53;;;;;;;;;1.00;1.00;;;;;21.53;58.94;100310.84;146615;569;47016;-66
2023/10/28 00:36:53;;;;;;;;;1.67;0.00;;;;;21.50;58.71;100302.94;146623;566;47010;-66
2023/10/28 00:39:50;;;;;;;;;;;;;;;;;;;;;
2023/10/28 00:42:50;;;;;;;;;1.00;1.00;;;;;21.48;58.48;100299.41;146624;593;47012;-67
2023/10/28 00:46:00;;;;;;;;;1.00;1.00;;;;;21.50;58.40;100302.94;146631;598;46020;-68
2023/10/28 00:49:00;;;;;;;;;0.00;0.00;;;;;21.52;58.52;100295.88;146624;681;46016;-68
2023/10/28 00:52:11;;;;;;;;;;;;;;;;;;;;;
2023/10/28 00:55:10;;;;;;;;;2.00;1.00;;;;;21.56;58.67;100297.66;146696;564;46013;-66
2023/10/28 00:58:29;;;;;;;;;1.00;1.00;;;;;21.54;58.36;100297.63;146612;737;46016;-65
2023/10/28 01:01:35;;;;;;;;;0.67;0.33;;;;;21.54;58.47;100294.13;146618;634;46020;-68
2023/10/28 01:04:30;;;;;;;;;0.00;0.00;;;;;21.54;58.34;100302.03;146612;571;46016;-65
2023/10/28 01:07:42;;;;;;;;;0.00;0.00;;;;;21.55;58.69;100302.03;146618;596;46012;-67
2023/10/28 01:10:41;;;;;;;;;0.33;0.33;;;;;21.56;58.31;100298.53;146610;593;47016;-66
2023/10/28 01:13:50;;;;;;;;;;;;;;;;;;;;;
2023/10/28 01:16:55;;;;;;;;;1.00;1.00;;;;;21.34;58.76;100257.16;146609;585;46016;-66
2023/10/28 01:19:58;;;;;;;;;0.00;0.00;;;;;21.53;58.67;100298.53;146612;595;47020;-66
2023/10/28 01:23:14;;;;;;;;;;;;;;;;;;;;;
2023/10/28 01:26:01;;;;;;;;;1.67;1.67;;;;;21.48;58.81;100286.22;146713;567;46012;-65
2023/10/28 01:29:06;;;;;;;;;1.67;1.67;;;;;21.40;59.19;100291.47;146617;581;47012;-66
2023/10/28 01:32:06;;;;;;;;;0.00;0.00;;;;;21.35;59.51;100295.84;146626;595;47010;-66
2023/10/28 01:35:23;;;;;;;;;2.00;1.00;;;;;21.33;59.75;100295.84;146619;655;46918;-65
2023/10/28 01:38:27;;;;;;;;;3.00;0.33;;;;;21.28;59.16;100296.69;146625;615;46010;-66
2023/10/28 01:41:29;;;;;;;;;0.67;0.67;;;;;20.41;59.38;100158.66;146618;648;47016;-66
2023/10/28 01:44:36;;;;;;;;;1.00;1.00;;;;;21.25;59.41;100300.25;146622;582;46020;-65
2023/10/28 01:47:33;;;;;;;;;1.00;1.00;;;;;21.29;59.78;100294.09;146622;590;46012;-65
2023/10/28 01:50:43;;;;;;;;;0.00;0.00;;;;;21.29;59.46;100290.56;146624;590;46012;-64
2023/10/28 01:53:42;;;;;;;;;2.00;2.00;;;;;21.28;59.54;100280.87;146617;624;46016;-66
2023/10/28 01:56:43;;;;;;;;;3.00;1.00;;;;;21.20;59.10;100284.41;146623;576;46010;-65
2023/10/28 01:59:57;;;;;;;;;1.00;0.00;;;;;21.20;59.13;100280.87;146619;613;46016;-66
2023/10/28 02:03:00;;;;;;;;;0.33;0.00;;;;;21.22;59.50;100282.66;146620;624;46021;-66
2023/10/28 02:06:01;;;;;;;;;0.00;0.00;;;;;21.25;58.82;100271.22;146618;697;46917;-67
2023/10/28 02:08:54;;;;;;;;;1.33;1.33;;;;;21.26;59.57;100274.75;146621;608;47012;-67
2023/10/28 02:11:53;;;;;;;;;0.00;0.00;;;;;21.23;59.33;100284.41;146616;567;46017;-66
2023/10/28 02:15:09;;;;;;;;;2.33;0.00;;;;;21.17;59.68;100280.87;146622;578;45020;-67
2023/10/28 02:18:13;;;;;;;;;0.00;0.00;;;;;21.10;59.70;100282.62;146622;577;46016;-66
2023/10/28 02:21:38;;;;;;;;;1.00;0.00;;;;;21.04;59.77;100280.00;146623;579;47012;-66
2023/10/28 02:24:41;;;;;;;;;1.00;1.00;;;;;21.01;60.31;100281.75;146619;616;46918;-67
2023/10/28 02:27:38;;;;;;;;;1.67;1.00;;;;;20.97;60.23;100287.00;146624;569;46010;-67
2023/10/28 02:30:35;;;;;;;;;1.67;1.67;;;;;20.96;60.08;100281.72;146621;620;46016;-67
2023/10/28 02:33:51;;;;;;;;;1.00;1.00;;;;;20.29;59.95;100170.03;146623;574;46021;-68
2023/10/28 02:36:52;;;;;;;;;1.00;1.00;;;;;20.99;59.74;100271.19;146619;597;46016;-67
2023/10/28 02:39:59;;;;;;;;;1.67;0.33;;;;;21.07;59.89;100273.84;146622;590;47010;-66
2023/10/28 02:43:00;;;;;;;;;1.33;1.33;;;;;21.14;59.41;100271.22;146618;582;46916;-66
2023/10/28 02:46:06;;;;;;;;;0.00;0.00;;;;;21.21;58.91;100275.63;146624;586;47013;-67
2023/10/28 02:49:03;;;;;;;;;1.00;1.00;;;;;21.29;58.62;100270.34;146617;653;47012;-66
2023/10/28 02:52:04;;;;;;;;;0.67;0.67;;;;;21.37;58.88;100267.72;146622;582;47010;-66
2023/10/28 02:55:02;;;;;;;;;0.33;0.33;;;;;21.40;58.53;100258.09;146620;594;46917;-68
2023/10/28 02:58:31;;;;;;;;;1.33;1.33;;;;;21.44;58.48;100256.31;146621;586;47010;-68
2023/10/28 03:01:26;;;;;;;;;2.00;1.00;;;;;21.44;58.54;100258.97;146617;601;47016;-67
2023/10/28 03:04:27;;;;;;;;;1.00;1.00;;;;;21.46;58.73;100254.53;146619;563;47020;-67
2023/10/28 03:07:40;;;;;;;;;3.00;2.00;;;;;21.47;58.31;100258.97;146615;565;47016;-66
2023/10/28 03:10:33;;;;;;;;;1.00;0.00;;;;;21.45;58.45;100258.94;146624;632;46020;-66
2023/10/28 03:13:28;;;;;;;;;1.67;0.67;;;;;21.45;58.21;100251.03;146617;648;46016;-66
2023/10/28 03:16:32;;;;;;;;;2.00;0.00;;;;;21.48;58.30;100249.28;146622;699;46020;-66
2023/10/28 03:19:32;;;;;;;;;1.00;1.00;;;;;21.49;58.07;100253.66;146619;612;46012;-65
2023/10/28 03:22:36;;;;;;;;;1.00;1.00;;;;;21.51;58.48;100257.19;146626;566;46010;-67
2023/10/28 03:25:41;;;;;;;;;1.00;1.00;;;;;21.53;58.45;100260.72;146623;604;46012;-66
2023/10/28 03:28:44;;;;;;;;;1.33;1.33;;;;;21.54;58.06;100258.06;146618;593;46916;-66
2023/10/28 03:31:38;;;;;;;;;2.00;2.00;;;;;21.56;57.89;100258.06;146622;614;46012;-66
2023/10/28 03:34:37;;;;;;;;;2.00;2.00;;;;;21.58;58.02;100265.09;146624;576;46020;-67
2023/10/28 03:37:37;;;;;;;;;1.00;1.00;;;;;21.57;57.74;100259.81;146619;570;46014;-68
2023/10/28 03:40:51;;;;;;;;;1.33;1.00;;;;;21.56;57.88;100261.59;146622;591;46021;-67
2023/10/28 03:43:45;;;;;;;;;3.33;1.00;;;;;21.58;57.83;100259.81;146622;587;45034;-66
2023/10/28 03:46:57;;;;;;;;;3.00;1.00;;;;;21.58;58.21;100259.81;146623;570;47010;-66
2023/10/28 03:49:59;;;;;;;;;1.00;1.00;;;;;21.58;58.32;100261.56;146612;572;47916;-67
2023/10/28 03:53:02;;;;;;;;;1.00;1.00;;;;;21.58;58.21;100261.56;146623;570;46011;-67
2023/10/28 03:55:54;;;;;;;;;2.00;2.00;;;;;21.58;58.11;100254.53;146620;595;46038;-67
2023/10/28 03:58:47;;;;;;;;;0.33;0.33;;;;;21.55;58.18;100259.81;146704;567;45048;-68
2023/10/28 04:01:47;;;;;;;;;0.00;0.00;;;;;21.57;58.24;100268.63;146617;655;46016;-68
2023/10/28 04:04:53;;;;;;;;;2.00;2.00;;;;;21.54;58.08;100259.81;146623;584;45029;-68
2023/10/28 04:08:10;;;;;;;;;3.67;3.00;;;;;21.21;58.53;100215.00;146618;569;46034;-70
2023/10/28 04:11:13;;;;;;;;;2.00;1.00;;;;;21.52;58.31;100270.38;146622;596;46020;-68
2023/10/28 04:14:19;;;;;;;;;2.00;1.00;;;;;21.54;58.40;100268.63;146621;570;46012;-67
2023/10/28 04:17:36;;;;;;;;;0.00;0.00;;;;;20.84;58.30;100144.66;146620;700;46010;-68
2023/10/28 04:20:37;;;;;;;;;1.00;1.00;;;;;21.58;58.11;100270.34;146614;601;47012;-67
2023/10/28 04:23:51;;;;;;;;;2.00;0.00;;;;;21.59;58.17;100277.41;146624;647;46012;-68
2023/10/28 04:26:54;;;;;;;;;2.67;2.67;;;;;21.58;58.42;100280.03;146617;580;47012;-67
2023/10/28 04:29:54;;;;;;;;;3.00;2.00;;;;;21.51;58.21;100281.81;146620;593;46012;-69
2023/10/28 04:32:59;;;;;;;;;2.00;1.00;;;;;21.46;58.40;100275.63;146616;658;47918;-67
2023/10/28 04:35:54;;;;;;;;;2.00;2.00;;;;;21.46;58.20;100275.63;146622;637;46021;-68
2023/10/28 04:38:52;;;;;;;;;2.33;2.33;;;;;21.49;58.30;100280.91;146615;574;46016;-66
2023/10/28 04:41:47;;;;;;;;;2.33;1.33;;;;;21.53;57.66;100280.06;146620;625;46010;-68
2023/10/28 04:44:43;;;;;;;;;3.33;2.00;;;;;21.59;57.89;100290.59;146619;601;46033;-66
2023/10/28 04:48:01;;;;;;;;;1.67;1.67;;;;;21.61;57.99;100294.09;146621;648;46020;-69
2023/10/28 04:51:02;;;;;;;;;3.00;2.00;;;;;21.62;58.14;100301.16;146620;667;46016;-68
2023/10/28 04:54:06;;;;;;;;;1.00;0.00;;;;;21.59;58.34;100309.06;146623;589;46010;-67
2023/10/28 04:57:03;;;;;;;;;1.00;1.00;;;;;21.57;58.61;100302.91;146618;583;46017;-67
2023/10/28 05:00:11;;;;;;;;;1.67;1.67;;;;;21.55;58.45;100304.66;146621;564;46010;-69
2023/10/28 05:03:03;;;;;;;;;1.67;1.33;;;;;21.56;58.16;100314.34;146617;693;46016;-67
2023/10/28 05:06:34;;;;;;;;;3.00;1.33;;;;;21.62;58.40;100318.72;146619;601;46021;-70
2023/10/28 05:09:40;;;;;;;;;1.33;1.33;;;;;21.67;58.77;100316.97;146619;577;46918;-68
2023/10/28 05:12:40;;;;;;;;;1.00;1.00;;;;;21.71;58.23;100312.56;146622;718;46010;-68
2023/10/28 05:15:38;;;;;;;;;1.33;1.33;;;;;21.75;58.40;100311.72;146618;632;46016;-69
2023/10/28 05:18:48;;;;;;;;;2.00;1.67;;;;;21.75;58.53;100312.56;146621;573;46020;-68
2023/10/28 05:21:46;;;;;;;;;1.67;1.33;;;;;21.84;58.33;100322.25;146620;582;46919;-68
2023/10/28 05:24:51;;;;;;;;;2.33;2.33;;;;;21.87;58.13;100320.47;146621;563;47012;-69
2023/10/28 05:27:59;;;;;;;;;4.00;2.00;;;;;21.88;58.75;100324.87;146619;639;46031;-68
2023/10/28 05:31:17;;;;;;;;;2.00;2.00;;;;;22.21;59.96;100333.66;146618;631;48010;-67
2023/10/28 05:34:26;;;;;;;;;;;;;;;;;;;;;
2023/10/28 05:37:21;;;;;;;;;3.00;2.00;;;;;24.17;54.75;100340.38;146618;635;46022;-67
2023/10/28 05:40:17;;;;;;;;;4.00;2.00;;;;;25.07;52.13;100334.84;146619;569;46016;-68
2023/10/28 05:43:48;;;;;;;;;3.00;3.00;;;;;26.01;50.64;100347.53;146621;572;47008;-68
2023/10/28 05:46:52;;;;;;;;;3.00;3.00;;;;;26.96;49.99;100348.31;146620;576;46012;-68
2023/10/28 05:49:44;;;;;;;;;3.33;2.00;;;;;27.65;46.92;100352.03;146708;569;48015;-68
2023/10/28 05:52:39;;;;;;;;;1.00;1.00;;;;;28.34;44.97;100358.25;146629;573;46012;-69
2023/10/28 05:55:46;;;;;;;;;2.00;2.00;;;;;28.83;46.27;100362.22;146629;654;46010;-69
2023/10/28 05:59:01;;;;;;;;;2.00;2.00;;;;;29.23;43.65;100361.91;146627;584;46012;-67
2023/10/28 06:02:19;;;;;;;;;1.00;1.00;;;;;29.62;42.98;100360.69;146628;583;46020;-69
2023/10/28 06:05:30;;;;;;;;;;;;;;;;;;;;;
2023/10/28 06:08:40;;;;;;;;;2.33;0.67;;;;;30.39;43.19;100393.69;146634;614;46010;-69
2023/10/28 06:11:39;;;;;;;;;1.00;1.00;;;;;30.75;42.29;100377.22;146627;569;47013;-69
2023/10/28 06:14:38;;;;;;;;;1.00;1.00;;;;;30.98;40.52;100392.44;146625;565;47020;-70
2023/10/28 06:17:40;;;;;;;;;1.00;1.00;;;;;31.14;40.65;100393.56;146623;612;47016;-70
2023/10/28 06:20:27;;;;;;;;;1.33;1.00;;;;;31.29;41.46;100379.59;146712;564;46022;-69
2023/10/28 06:23:23;;;;;;;;;0.33;0.33;;;;;31.25;40.53;100394.03;146622;621;46012;-68
2023/10/28 06:26:30;;;;;;;;;1.00;1.00;;;;;30.47;42.13;100281.94;146624;581;47010;-69
2023/10/28 06:29:51;;;;;;;;;2.00;1.00;;;;;30.86;42.79;100393.78;146619;580;47012;-70
2023/10/28 06:33:16;;;;;;;;;2.67;1.67;;;;;30.61;42.12;100389.31;146619;565;47020;-70
2023/10/28 06:36:33;;;;;;;;;1.33;1.33;;;;;30.33;41.18;100393.91;146616;677;46035;-69
2023/10/28 06:39:46;;;;;;;;;1.00;0.00;;;;;29.97;42.18;100380.00;146623;716;46027;-68
2023/10/28 06:42:42;;;;;;;;;1.00;1.00;;;;;29.67;43.05;100388.12;146619;582;46017;-69
2023/10/28 06:45:46;;;;;;;;;0.33;0.33;;;;;29.39;43.62;100388.97;146624;603;46020;-69
2023/10/28 06:49:09;;;;;;;;;4.33;1.00;;;;;28.99;45.82;100370.62;146620;596;46016;-70
2023/10/28 06:52:14;;;;;;;;;1.33;1.33;;;;;28.88;43.95;100397.66;146622;572;46010;-69
2023/10/28 06:55:21;;;;;;;;;3.00;2.00;;;;;28.68;45.15;100392.87;146618;584;47012;-67
2023/10/28 06:58:20;;;;;;;;;2.33;1.33;;;;;28.51;45.13;100411.16;146622;565;47053;-68
2023/10/28 07:01:32;;;;;;;;;2.00;1.00;;;;;28.29;47.83;100402.84;146620;612;47012;-70
2023/10/28 07:04:32;;;;;;;;;1.00;0.00;;;;;28.26;46.50;100408.25;146625;586;46020;-70
2023/10/28 07:07:38;;;;;;;;;4.00;1.67;;;;;28.20;47.29;100419.09;146620;715;46016;-68
2023/10/28 07:10:31;;;;;;;;;3.00;2.00;;;;;28.18;45.82;100412.91;146620;580;47010;-68
2023/10/28 07:13:27;;;;;;;;;0.00;0.00;;;;;28.19;46.92;100414.66;146619;602;47013;-67
2023/10/28 07:16:48;;;;;;;;;2.00;1.67;;;;;28.19;48.12;100410.19;146618;742;46020;-68
2023/10/28 07:19:47;;;;;;;;;0.67;0.67;;;;;28.17;45.96;100408.50;146622;702;46012;-67
2023/10/28 07:22:45;;;;;;;;;1.00;1.00;;;;;28.15;45.65;100413.00;146624;681;46010;-66
2023/10/28 07:25:41;;;;;;;;;1.33;0.33;;;;;28.10;46.31;100410.47;146617;573;46016;-67
2023/10/28 07:28:42;;;;;;;;;1.00;1.00;;;;;28.13;47.28;100417.47;146626;576;45030;-67
2023/10/28 07:31:42;;;;;;;;;1.00;1.00;;;;;28.20;47.86;100427.09;146617;610;47012;-67
2023/10/28 07:34:45;;;;;;;;;3.00;0.33;;;;;28.25;48.28;100423.34;146622;586;46020;-66
2023/10/28 07:37:45;;;;;;;;;1.00;1.00;;;;;28.36;46.84;100424.88;146618;620;47012;-68
2023/10/28 07:40:43;;;;;;;;;3.67;1.00;;;;;28.42;46.36;100422.09;146625;629;46020;-68
2023/10/28 07:43:36;;;;;;;;;1.67;0.33;;;;;28.41;45.37;100420.31;146617;651;47014;-68
2023/10/28 07:46:37;;;;;;;;;1.00;1.00;;;;;28.43;45.92;100418.50;146619;600;46020;-70
2023/10/28 07:49:35;;;;;;;;;1.67;1.67;;;;;28.44;46.49;100418.47;146619;629;47012;-69
2023/10/28 07:52:29;;;;;;;;;1.00;1.00;;;;;28.54;46.46;100427.09;146626;591;46010;-69
2023/10/28 07:55:31;;;;;;;;;2.00;1.33;;;;;28.64;44.56;100428.56;146619;607;47012;-68
2023/10/28 07:58:26;;;;;;;;;4.33;0.33;;;;;28.70;44.95;100430.19;146620;633;46021;-69
2023/10/28 08:01:30;;;;;;;;;2.00;1.67;;;;;28.78;44.68;100436.16;146620;565;46012;-68
2023/10/28 08:04:26;;;;;;;;;2.67;1.67;;;;;28.88;45.49;100436.78;146623;658;47010;-69
2023/10/28 08:07:24;;;;;;;;;1.00;1.00;;;;;29.04;45.10;100442.59;146618;599;47016;-69
2023/10/28 08:10:22;;;;;;;;;2.67;1.00;;;;;29.18;44.85;100443.91;146625;663;46010;-69
2023/10/28 08:13:21;;;;;;;;;1.67;1.67;;;;;29.32;43.46;100440.84;146614;569;46016;-69
2023/10/28 08:16:05;;;;;;;;;2.33;1.00;;;;;29.43;43.93;100445.84;146711;569;47012;-71
2023/10/28 08:19:12;;;;;;;;;1.67;1.67;;;;;29.58;45.07;100452.50;146623;599;46018;-70
2023/10/28 08:22:31;;;;;;;;;1.33;1.33;;;;;29.77;46.51;100458.19;146628;597;47011;-70
2023/10/28 08:25:50;;;;;;;;;1.00;1.00;;;;;29.92;44.34;100455.88;146620;716;46014;-70
2023/10/28 08:29:17;;;;;;;;;1.00;1.00;;;;;30.04;45.82;100457.28;146630;629;46027;-72
2023/10/28 08:32:43;;;;;;;;;;;;;;;;;;;;;
2023/10/28 08:35:48;;;;;;;;;2.00;2.00;;;;;29.68;45.29;100363.16;146628;681;46020;-69
2023/10/28 08:38:43;;;;;;;;;4.00;2.67;;;;;30.35;43.95;100466.97;146625;618;46012;-70
2023/10/28 08:41:42;;;;;;;;;2.00;1.00;;;;;30.44;44.03;100468.41;146630;604;47010;-69
2023/10/28 08:44:45;;;;;;;;;1.00;1.00;;;;;30.51;43.76;100472.66;146622;570;46016;-70
2023/10/28 08:47:26;;;;;;;;;1.00;1.00;;;;;30.58;40.88;100474.16;146711;566;46014;-71
2023/10/28 08:50:35;;;;;;;;;4.00;2.00;;;;;30.63;43.87;100469.53;146622;580;47016;-70
2023/10/28 08:53:41;;;;;;;;;2.33;2.00;;;;;30.66;41.98;100477.47;146627;684;47033;-71
2023/10/28 08:56:42;;;;;;;;;2.67;1.67;;;;;30.67;43.33;100473.84;146622;636;46016;-71
2023/10/28 08:59:42;;;;;;;;;6.00;3.00;;;;;30.76;43.79;100475.31;146630;569;46020;-71
2023/10/28 09:02:43;;;;;;;;;4.00;1.67;;;;;30.87;42.97;100474.94;146622;650;47012;-70
2023/10/28 09:05:38;;;;;;;;;3.67;3.67;;;;;30.93;41.65;100477.41;146629;566;46020;-70
2023/10/28 09:08:43;;;;;;;;;2.00;2.00;;;;;30.98;43.55;100484.34;146621;684;46016;-69
2023/10/28 09:11:45;;;;;;;;;2.00;2.00;;;;;31.05;42.16;100472.47;146630;598;47010;-71
2023/10/28 09:14:47;;;;;;;;;2.00;2.00;;;;;31.14;43.68;100471.25;146625;673;47012;-70
2023/10/28 09:18:01;;;;;;;;;;;;;;;;;;;;;
2023/10/28 09:21:00;;;;;;;;;2.67;1.00;;;;;31.25;42.87;100462.81;146623;571;46014;-70
2023/10/28 09:24:02;;;;;;;;;1.33;1.33;;;;;31.34;41.47;100458.91;146628;575;46020;-70
2023/10/28 09:26:57;;;;;;;;;0.00;0.00;;;;;31.43;41.51;100463.91;146624;582;47012;-70
2023/10/28 09:30:19;;;;;;;;;3.00;3.00;;;;;31.50;43.82;100466.31;146625;661;46020;-71
2023/10/28 09:33:36;;;;;;;;;2.67;2.67;;;;;31.55;44.53;100441.13;146624;581;47012;-70
2023/10/28 09:36:56;;;;;;;;;5.00;2.00;;;;;31.71;40.84;100448.50;146626;661;47020;-71
2023/10/28 09:40:18;;;;;;;;;2.33;2.33;;;;;31.73;44.10;100440.37;146625;569;46013;-71
2023/10/28 09:43:34;;;;;;;;;4.67;2.67;;;;;31.83;41.40;100449.78;146622;566;47010;-71
2023/10/28 09:46:52;;;;;;;;;4.00;3.00;;;;;31.26;42.74;100344.88;146616;673;46016;-70
2023/10/28 09:50:07;;;;;;;;;4.33;3.33;;;;;31.94;42.97;100444.03;146616;605;46020;-71
2023/10/28 09:53:38;;;;;;;;;8.33;7.00;;;;;31.35;42.96;100335.63;146610;576;47013;-71
2023/10/28 09:56:53;;;;;;;;;6.67;5.00;;;;;32.05;41.69;100436.38;146615;577;46027;-70
2023/10/28 09:59:53;;;;;;;;;2.33;2.00;;;;;32.09;40.81;100440.69;146611;578;47012;-70
2023/10/28 10:03:26;;;;;;;;;5.00;3.33;;;;;32.16;41.85;100439.50;146614;585;47021;-70
2023/10/28 10:06:27;;;;;;;;;4.00;4.00;;;;;32.04;39.31;100445.38;146610;579;47016;-71
2023/10/28 10:09:28;;;;;;;;;3.00;3.00;;;;;31.95;43.00;100425.19;146616;624;47011;-70
2023/10/28 10:12:22;;;;;;;;;2.33;1.67;;;;;31.96;39.81;100435.00;146613;563;46012;-70
2023/10/28 10:15:38;;;;;;;;;4.67;3.00;;;;;31.99;40.43;100431.28;146615;690;47010;-70
2023/10/28 10:19:02;;;;;;;;;8.67;5.00;;;;;31.05;40.44;100276.12;146612;657;47016;-71
2023/10/28 10:22:05;;;;;;;;;5.00;5.00;;;;;32.06;41.98;100427.44;146615;633;47012;-71
2023/10/28 10:24:58;;;;;;;;;4.00;4.00;;;;;32.16;37.76;100423.41;146610;607;46036;-72
2023/10/28 10:28:23;;;;;;;;;5.67;4.67;;;;;32.25;41.46;100427.50;146618;648;46027;-70
2023/10/28 10:31:46;;;;;;;;;4.00;2.00;;;;;32.33;41.28;100435.19;146610;588;47012;-71
2023/10/28 10:34:43;;;;;;;;;6.67;5.33;;;;;32.41;39.77;100430.37;146615;569;48010;-71
2023/10/28 10:37:49;;;;;;;;;9.67;7.67;;;;;31.68;39.33;100277.09;146607;564;47013;-70
2023/10/28 10:40:59;;;;;;;;;10.67;9.67;;;;;32.54;41.18;100423.56;146615;579;47010;-70
2023/10/28 10:43:55;;;;;;;;;10.67;9.33;;;;;32.53;38.96;100420.97;146608;571;47012;-70
2023/10/28 10:47:23;;;;;;;;;6.67;5.00;;;;;31.69;39.35;100284.19;146615;581;47010;-70
2023/10/28 10:50:40;;;;;;;;;8.00;6.00;;;;;32.27;40.36;100416.69;146612;666;47012;-71
2023/10/28 10:54:05;;;;;;;;;5.00;5.00;;;;;31.29;42.29;100263.53;146613;598;47010;-70
2023/10/28 10:57:06;;;;;;;;;3.00;1.33;;;;;31.97;39.76;100409.03;146613;580;46016;-70
2023/10/28 11:00:00;;;;;;;;;3.00;2.33;;;;;31.83;40.01;100403.34;146618;573;47011;-70
2023/10/28 11:03:02;;;;;;;;;3.00;2.33;;;;;31.73;39.00;100403.72;146612;621;47012;-71
2023/10/28 11:06:02;;;;;;;;;1.67;1.67;;;;;31.68;39.94;100399.47;146615;592;47020;-71
2023/10/28 11:08:57;;;;;;;;;10.00;7.00;;;;;31.71;40.10;100405.63;146610;575;47014;-71
2023/10/28 11:11:55;;;;;;;;;4.00;3.00;;;;;31.76;40.06;100400.06;146615;589;47010;-70
2023/10/28 11:14:51;;;;;;;;;4.00;3.00;;;;;31.77;40.01;100407.16;146609;570;47013;-70
2023/10/28 11:17:55;;;;;;;;;4.33;3.33;;;;;31.73;38.57;100401.03;146615;625;46020;-71
2023/10/28 11:20:57;;;;;;;;;3.00;3.00;;;;;31.67;39.82;100395.94;146612;614;47016;-70
2023/10/28 11:23:55;;;;;;;;;1.33;0.67;;;;;31.62;39.24;100395.28;146613;569;47010;-70
2023/10/28 11:26:58;;;;;;;;;5.00;4.00;;;;;31.54;39.04;100394.69;146609;606;47014;-70
2023/10/28 11:30:07;;;;;;;;;4.00;3.00;;;;;31.42;39.87;100395.19;146616;618;47021;-69
2023/10/28 11:33:11;;;;;;;;;3.00;2.00;;;;;31.29;40.10;100390.28;146612;597;46025;-70
2023/10/28 11:36:35;;;;;;;;;3.00;3.00;;;;;31.28;39.68;100388.56;146615;645;46022;-70
2023/10/28 11:39:40;;;;;;;;;;;;;;;;;;;;;
2023/10/28 11:42:43;;;;;;;;;2.33;1.33;;;;;31.00;40.23;100393.25;146618;582;46010;-70
2023/10/28 11:45:36;;;;;;;;;1.00;1.00;;;;;30.75;39.39;100391.47;146607;682;47014;-72
2023/10/28 11:48:36;;;;;;;;;3.00;1.00;;;;;30.58;39.79;100385.87;146618;563;46020;-71
2023/10/28 11:51:33;;;;;;;;;2.00;2.00;;;;;30.54;41.55;100386.91;146611;569;46017;-71
2023/10/28 11:54:28;;;;;;;;;2.67;2.00;;;;;30.51;40.59;100385.22;146615;585;47010;-70
2023/10/28 11:57:29;;;;;;;;;1.00;0.33;;;;;30.48;41.51;100377.31;146612;586;47035;-70
2023/10/28 12:00:30;;;;;;;;;3.33;1.00;;;;;30.44;41.82;100380.13;146616;641;47010;-69
2023/10/28 12:03:37;;;;;;;;;2.67;1.67;;;;;30.40;42.62;100379.37;146611;706;47012;-69
2023/10/28 12:06:33;;;;;;;;;2.00;2.00;;;;;30.34;42.30;100376.94;146617;589;46021;-69
2023/10/28 12:09:35;;;;;;;;;5.00;2.00;;;;;30.31;42.39;100385.06;146612;564;47012;-70
2023/10/28 12:12:43;;;;;;;;;3.00;1.00;;;;;30.30;42.39;100384.19;146616;564;46020;-71
2023/10/28 12:15:38;;;;;;;;;1.67;0.00;;;;;30.32;42.06;100379.66;146608;572;47917;-71
2023/10/28 12:18:41;;;;;;;;;1.33;1.33;;;;;30.24;40.85;100380.88;146620;727;46010;-70
2023/10/28 12:21:45;;;;;;;;;1.67;1.67;;;;;29.96;41.72;100388.94;146610;590;46017;-70
2023/10/28 12:24:46;;;;;;;;;1.33;1.00;;;;;29.80;42.93;100380.56;146617;629;46020;-70
2023/10/28 12:27:44;;;;;;;;;3.67;2.00;;;;;29.57;41.62;100381.31;146614;678;46016;-70
2023/10/28 12:30:45;;;;;;;;;4.00;2.00;;;;;29.41;42.28;100379.13;146615;585;47021;-71
2023/10/28 12:33:41;;;;;;;;;5.00;2.00;;;;;29.49;42.92;100378.00;146611;596;47012;-70
2023/10/28 12:36:47;;;;;;;;;2.33;2.00;;;;;29.59;42.28;100384.78;146618;583;46021;-71
2023/10/28 12:39:45;;;;;;;;;3.00;1.00;;;;;29.64;41.72;100383.75;146613;576;46016;-70
2023/10/28 12:42:38;;;;;;;;;2.33;0.67;;;;;29.66;41.02;100389.94;146614;566;46020;-70
2023/10/28 12:45:40;;;;;;;;;1.00;1.00;;;;;29.66;39.86;100386.37;146608;709;47014;-71
2023/10/28 12:48:45;;;;;;;;;2.33;1.67;;;;;29.63;39.98;100386.50;146621;664;47051;-70
2023/10/28 12:51:53;;;;;;;;;2.33;1.33;;;;;29.65;41.72;100387.28;146616;597;46017;-70
2023/10/28 12:55:00;;;;;;;;;2.67;1.33;;;;;28.41;41.38;100158.97;146619;622;47012;-70
2023/10/28 12:57:55;;;;;;;;;1.00;0.00;;;;;29.68;40.04;100387.19;146618;678;47013;-71
2023/10/28 13:00:49;;;;;;;;;2.00;2.00;;;;;29.70;40.82;100380.00;146621;671;46021;-70
2023/10/28 13:04:01;;;;;;;;;;;;;;;;;;;;;
2023/10/28 13:07:02;;;;;;;;;3.67;2.67;;;;;29.88;41.55;100384.75;146622;672;46021;-71
2023/10/28 13:09:58;;;;;;;;;1.00;1.00;;;;;30.00;41.42;100377.22;146618;665;47012;-70
2023/10/28 13:13:03;;;;;;;;;4.67;1.67;;;;;30.09;40.54;100376.88;146622;589;47010;-70
2023/10/28 13:16:01;;;;;;;;;1.00;0.67;;;;;30.13;41.23;100373.19;146617;745;46016;-71
2023/10/28 13:18:57;;;;;;;;;2.00;1.00;;;;;30.20;40.02;100371.22;146621;569;46020;-71
2023/10/28 13:22:01;;;;;;;;;1.67;1.00;;;;;30.24;38.77;100368.38;146619;584;46917;-70
2023/10/28 13:25:00;;;;;;;;;2.00;1.00;;;;;30.14;39.18;100373.13;146624;574;46020;-70
2023/10/28 13:27:59;;;;;;;;;3.33;2.00;;;;;30.11;40.27;100367.91;146621;571;46012;-70
2023/10/28 13:31:04;;;;;;;;;1.67;1.67;;;;;30.13;40.48;100373.19;146619;597;47010;-71
2023/10/28 13:34:01;;;;;;;;;1.33;1.00;;;;;30.16;40.21;100370.41;146621;579;46012;-71
2023/10/28 13:37:07;;;;;;;;;4.00;1.00;;;;;29.62;41.45;100277.84;146623;603;47010;-72
2023/10/28 13:40:24;;;;;;;;;1.67;1.33;;;;;28.85;40.39;100128.22;146618;585;46016;-71
2023/10/28 13:43:18;;;;;;;;;2.00;1.00;;;;;30.17;39.15;100369.50;146621;574;46021;-69
2023/10/28 13:46:22;;;;;;;;;1.33;0.00;;;;;30.04;41.41;100366.37;146617;656;46014;-71
2023/10/28 13:49:20;;;;;;;;;1.67;0.67;;;;;29.98;40.45;100371.06;146622;595;46020;-71
2023/10/28 13:52:23;;;;;;;;;1.33;0.33;;;;;29.88;40.31;100371.38;146617;572;46037;-70
2023/10/28 13:55:31;;;;;;;;;3.00;1.33;;;;;29.81;41.19;100366.28;146621;644;46010;-71
2023/10/28 13:58:27;;;;;;;;;2.00;0.00;;;;;29.75;40.40;100364.72;146620;658;46012;-70
2023/10/28 14:01:42;;;;;;;;;4.00;1.67;;;;;28.30;41.15;100141.50;146618;563;47010;-71
2023/10/28 14:04:41;;;;;;;;;2.67;2.67;;;;;29.43;40.27;100363.03;146617;684;46012;-72
2023/10/28 14:07:44;;;;;;;;;2.00;2.00;;;;;29.23;40.61;100361.03;146611;572;46021;-70
2023/10/28 14:10:50;;;;;;;;;2.00;2.00;;;;;29.08;42.94;100374.84;146617;607;46025;-70
2023/10/28 14:14:03;;;;;;;;;2.00;1.00;;;;;28.91;42.04;100368.19;146622;655;46021;-72
2023/10/28 14:17:08;;;;;;;;;3.33;1.67;;;;;28.00;42.68;100255.22;146619;572;46016;-70
2023/10/28 14:20:03;;;;;;;;;1.33;1.00;;;;;28.60;42.64;100370.00;146620;635;46020;-70
2023/10/28 14:23:16;;;;;;;;;0.33;0.33;;;;;28.44;42.62;100375.78;146614;599;47012;-69
2023/10/28 14:26:39;;;;;;;;;1.00;1.00;;;;;28.31;42.92;100382.31;146622;677;46010;-69
2023/10/28 14:29:38;;;;;;;;;3.33;2.33;;;;;28.23;44.09;100379.00;146619;576;46012;-69
2023/10/28 14:32:39;;;;;;;;;2.00;1.33;;;;;28.15;44.25;100383.66;146624;586;47010;-69
2023/10/28 14:35:46;;;;;;;;;1.33;1.33;;;;;28.08;43.88;100388.28;146619;571;46016;-69